sensor_id;sensor_type;location;lat;lon;timestamp;temperature;humidity
71754;DHT22;59593;51.716;7.016;2022-12-07T00:00:52;5.70;99.90
71754;DHT22;59593;51.716;7.016;2022-12-07T00:03:17;5.70;99.90
71754;DHT22;59593;51.716;7.016;2022-12-07T00:05:43;5.60;99.90
71754;DHT22;59593;51.716;7.016;2022-12-07T00:08:09;5.60;99.90
71754;DHT22;59593;51.716;7.016;2022-12-07T00:10:34;5.70;99.90
71754;DHT22;59593;51.716;7.016;2022-12-07T00:13:00;5.80;99.90
71754;DHT22;59593;51.716;7.016;2022-12-07T00:15:26;5.70;99.90
71754;DHT22;59593;51.716;7.016;2022-12-07T00:17:52;5.80;99.90
71754;DHT22;59593;51.716;7.016;2022-12-07T00:20:17;5.70;99.90
71754;DHT22;59593;51.716;7.016;2022-12-07T00:22:43;5.80;99.90
71754;DHT22;59593;51.716;7.016;2022-12-07T00:25:08;5.80;99.90
71754;DHT22;59593;51.716;7.016;2022-12-07T00:27:34;5.80;99.90
71754;DHT22;59593;51.716;7.016;2022-12-07T00:29:59;5.80;99.90
71754;DHT22;59593;51.716;7.016;2022-12-07T00:32:25;5.80;99.90
71754;DHT22;59593;51.716;7.016;2022-12-07T00:34:51;5.80;99.90
71754;DHT22;59593;51.716;7.016;2022-12-07T00:37:16;5.80;99.90
71754;DHT22;59593;51.716;7.016;2022-12-07T00:39:42;5.80;99.90
71754;DHT22;59593;51.716;7.016;2022-12-07T00:42:07;5.70;99.90
71754;DHT22;59593;51.716;7.016;2022-12-07T00:44:33;5.80;99.90
71754;DHT22;59593;51.716;7.016;2022-12-07T00:46:59;5.80;99.90
71754;DHT22;59593;51.716;7.016;2022-12-07T00:49:24;5.80;99.90
71754;DHT22;59593;51.716;7.016;2022-12-07T00:51:50;5.90;99.90
71754;DHT22;59593;51.716;7.016;2022-12-07T00:54:15;5.90;99.90
71754;DHT22;59593;51.716;7.016;2022-12-07T00:56:41;5.80;99.90
71754;DHT22;59593;51.716;7.016;2022-12-07T00:59:06;5.80;99.90
71754;DHT22;59593;51.716;7.016;2022-12-07T01:01:35;5.70;99.90
71754;DHT22;59593;51.716;7.016;2022-12-07T01:04:01;5.70;99.90
71754;DHT22;59593;51.716;7.016;2022-12-07T01:06:27;5.80;99.90
71754;DHT22;59593;51.716;7.016;2022-12-07T01:08:53;5.70;99.90
71754;DHT22;59593;51.716;7.016;2022-12-07T01:11:22;5.70;99.90
71754;DHT22;59593;51.716;7.016;2022-12-07T01:13:50;5.60;99.90
71754;DHT22;59593;51.716;7.016;2022-12-07T01:16:17;5.50;99.90
71754;DHT22;59593;51.716;7.016;2022-12-07T01:18:46;5.60;99.90
71754;DHT22;59593;51.716;7.016;2022-12-07T01:21:14;5.80;99.90
71754;DHT22;59593;51.716;7.016;2022-12-07T01:23:40;5.80;99.90
71754;DHT22;59593;51.716;7.016;2022-12-07T01:26:09;5.80;99.90
71754;DHT22;59593;51.716;7.016;2022-12-07T01:28:36;5.70;99.90
71754;DHT22;59593;51.716;7.016;2022-12-07T01:31:10;5.70;99.90
71754;DHT22;59593;51.716;7.016;2022-12-07T01:33:38;5.70;99.90
71754;DHT22;59593;51.716;7.016;2022-12-07T01:36:05;5.60;99.90
71754;DHT22;59593;51.716;7.016;2022-12-07T01:38:32;5.70;99.90
71754;DHT22;59593;51.716;7.016;2022-12-07T01:40:59;5.60;99.90
71754;DHT22;59593;51.716;7.016;2022-12-07T01:43:26;5.60;99.90
71754;DHT22;59593;51.716;7.016;2022-12-07T01:45:52;5.60;99.90
71754;DHT22;59593;51.716;7.016;2022-12-07T01:48:25;5.60;99.90
71754;DHT22;59593;51.716;7.016;2022-12-07T01:50:52;5.60;99.90
71754;DHT22;59593;51.716;7.016;2022-12-07T01:53:19;5.50;99.90
71754;DHT22;59593;51.716;7.016;2022-12-07T01:55:49;5.60;99.90
71754;DHT22;59593;51.716;7.016;2022-12-07T01:58:17;5.60;99.90
71754;DHT22;59593;51.716;7.016;2022-12-07T02:00:43;5.50;99.90
71754;DHT22;59593;51.716;7.016;2022-12-07T02:03:19;5.60;99.90
71754;DHT22;59593;51.716;7.016;2022-12-07T02:05:48;5.50;99.90
71754;DHT22;59593;51.716;7.016;2022-12-07T02:08:15;5.40;99.90
71754;DHT22;59593;51.716;7.016;2022-12-07T02:10:41;5.30;99.90
71754;DHT22;59593;51.716;7.016;2022-12-07T02:13:19;5.30;99.90
71754;DHT22;59593;51.716;7.016;2022-12-07T02:16:05;5.20;99.90
71754;DHT22;59593;51.716;7.016;2022-12-07T02:24:58;4.90;99.90
71754;DHT22;59593;51.716;7.016;2022-12-07T02:30:21;4.90;99.90
71754;DHT22;59593;51.716;7.016;2022-12-07T02:33:07;4.80;99.90
71754;DHT22;59593;51.716;7.016;2022-12-07T02:38:08;4.80;99.90
71754;DHT22;59593;51.716;7.016;2022-12-07T02:40:44;4.80;99.90
71754;DHT22;59593;51.716;7.016;2022-12-07T02:43:39;4.80;99.90
71754;DHT22;59593;51.716;7.016;2022-12-07T02:46:10;4.90;99.90
71754;DHT22;59593;51.716;7.016;2022-12-07T02:48:39;4.80;99.90
71754;DHT22;59593;51.716;7.016;2022-12-07T02:51:06;4.70;99.90
71754;DHT22;59593;51.716;7.016;2022-12-07T02:53:33;4.60;99.90
71754;DHT22;59593;51.716;7.016;2022-12-07T02:56:07;4.70;99.90
71754;DHT22;59593;51.716;7.016;2022-12-07T02:58:42;4.80;99.90
71754;DHT22;59593;51.716;7.016;2022-12-07T03:18:12;4.50;99.90
71754;DHT22;59593;51.716;7.016;2022-12-07T03:20:39;4.50;99.90
71754;DHT22;59593;51.716;7.016;2022-12-07T03:23:07;4.40;99.90
71754;DHT22;59593;51.716;7.016;2022-12-07T03:25:38;4.50;99.90
71754;DHT22;59593;51.716;7.016;2022-12-07T03:28:06;4.40;99.90
71754;DHT22;59593;51.716;7.016;2022-12-07T03:30:56;4.40;99.90
71754;DHT22;59593;51.716;7.016;2022-12-07T03:33:39;4.30;99.90
71754;DHT22;59593;51.716;7.016;2022-12-07T03:38:38;4.30;99.90
71754;DHT22;59593;51.716;7.016;2022-12-07T03:41:06;4.10;99.90
71754;DHT22;59593;51.716;7.016;2022-12-07T03:43:35;4.20;99.90
71754;DHT22;59593;51.716;7.016;2022-12-07T03:46:21;4.20;99.90
71754;DHT22;59593;51.716;7.016;2022-12-07T03:49:06;4.10;99.90
71754;DHT22;59593;51.716;7.016;2022-12-07T03:54:39;4.10;99.90
71754;DHT22;59593;51.716;7.016;2022-12-07T03:57:07;4.10;99.90
71754;DHT22;59593;51.716;7.016;2022-12-07T03:59:33;4.20;99.90
71754;DHT22;59593;51.716;7.016;2022-12-07T04:02:05;4.20;99.90
71754;DHT22;59593;51.716;7.016;2022-12-07T04:04:31;4.30;99.90
71754;DHT22;59593;51.716;7.016;2022-12-07T04:06:57;4.30;99.90
71754;DHT22;59593;51.716;7.016;2022-12-07T04:09:23;4.30;99.90
71754;DHT22;59593;51.716;7.016;2022-12-07T04:11:48;4.40;99.90
71754;DHT22;59593;51.716;7.016;2022-12-07T04:14:14;4.30;99.90
71754;DHT22;59593;51.716;7.016;2022-12-07T04:16:51;4.10;99.90
71754;DHT22;59593;51.716;7.016;2022-12-07T04:19:19;4.10;99.90
71754;DHT22;59593;51.716;7.016;2022-12-07T04:21:45;4.10;99.90
71754;DHT22;59593;51.716;7.016;2022-12-07T04:24:12;4.30;99.90
71754;DHT22;59593;51.716;7.016;2022-12-07T04:26:38;4.50;99.90
71754;DHT22;59593;51.716;7.016;2022-12-07T04:29:04;4.50;99.90
71754;DHT22;59593;51.716;7.016;2022-12-07T04:31:30;4.30;99.90
71754;DHT22;59593;51.716;7.016;2022-12-07T04:33:55;4.30;99.90
71754;DHT22;59593;51.716;7.016;2022-12-07T04:36:21;4.40;99.90
71754;DHT22;59593;51.716;7.016;2022-12-07T04:38:47;4.30;99.90
71754;DHT22;59593;51.716;7.016;2022-12-07T04:41:13;4.50;99.90
71754;DHT22;59593;51.716;7.016;2022-12-07T04:43:39;4.60;99.90
71754;DHT22;59593;51.716;7.016;2022-12-07T04:46:04;4.60;99.90
71754;DHT22;59593;51.716;7.016;2022-12-07T04:48:31;4.40;99.90
71754;DHT22;59593;51.716;7.016;2022-12-07T04:50:56;4.30;99.90
71754;DHT22;59593;51.716;7.016;2022-12-07T04:53:22;4.40;99.90
71754;DHT22;59593;51.716;7.016;2022-12-07T04:55:48;4.50;99.90
71754;DHT22;59593;51.716;7.016;2022-12-07T04:58:14;4.40;99.90
71754;DHT22;59593;51.716;7.016;2022-12-07T05:00:40;4.40;99.90
71754;DHT22;59593;51.716;7.016;2022-12-07T05:03:05;4.50;99.90
71754;DHT22;59593;51.716;7.016;2022-12-07T05:05:31;4.50;99.90
71754;DHT22;59593;51.716;7.016;2022-12-07T05:07:57;4.50;99.90
71754;DHT22;59593;51.716;7.016;2022-12-07T05:10:22;4.50;99.90
71754;DHT22;59593;51.716;7.016;2022-12-07T05:12:48;4.40;99.90
71754;DHT22;59593;51.716;7.016;2022-12-07T05:15:15;4.40;99.90
71754;DHT22;59593;51.716;7.016;2022-12-07T05:17:41;4.40;99.90
71754;DHT22;59593;51.716;7.016;2022-12-07T05:20:07;4.60;99.90
71754;DHT22;59593;51.716;7.016;2022-12-07T05:22:33;4.60;99.90
71754;DHT22;59593;51.716;7.016;2022-12-07T05:24:58;4.50;99.90
71754;DHT22;59593;51.716;7.016;2022-12-07T05:27:24;4.40;99.90
71754;DHT22;59593;51.716;7.016;2022-12-07T05:29:50;4.30;99.90
71754;DHT22;59593;51.716;7.016;2022-12-07T05:32:16;4.20;99.90
71754;DHT22;59593;51.716;7.016;2022-12-07T05:34:42;4.20;99.90
71754;DHT22;59593;51.716;7.016;2022-12-07T05:37:07;4.20;99.90
71754;DHT22;59593;51.716;7.016;2022-12-07T05:39:33;4.20;99.90
71754;DHT22;59593;51.716;7.016;2022-12-07T05:41:59;4.30;99.90
71754;DHT22;59593;51.716;7.016;2022-12-07T05:44:44;4.30;99.90
71754;DHT22;59593;51.716;7.016;2022-12-07T05:47:10;4.50;99.90
71754;DHT22;59593;51.716;7.016;2022-12-07T05:49:36;4.50;99.90
71754;DHT22;59593;51.716;7.016;2022-12-07T05:52:02;4.60;99.90
71754;DHT22;59593;51.716;7.016;2022-12-07T05:54:28;4.50;99.90
71754;DHT22;59593;51.716;7.016;2022-12-07T05:56:54;4.50;99.90
71754;DHT22;59593;51.716;7.016;2022-12-07T05:59:20;4.40;99.90
71754;DHT22;59593;51.716;7.016;2022-12-07T06:02:12;4.40;99.90
71754;DHT22;59593;51.716;7.016;2022-12-07T06:04:41;4.40;99.90
71754;DHT22;59593;51.716;7.016;2022-12-07T06:07:08;4.40;99.90
71754;DHT22;59593;51.716;7.016;2022-12-07T06:09:35;4.40;99.90
71754;DHT22;59593;51.716;7.016;2022-12-07T06:12:01;4.30;99.90
71754;DHT22;59593;51.716;7.016;2022-12-07T06:14:45;4.20;99.90
71754;DHT22;59593;51.716;7.016;2022-12-07T06:17:11;4.30;99.90
71754;DHT22;59593;51.716;7.016;2022-12-07T06:19:37;4.30;99.90
71754;DHT22;59593;51.716;7.016;2022-12-07T06:22:03;4.20;99.90
71754;DHT22;59593;51.716;7.016;2022-12-07T06:24:31;4.20;99.90
71754;DHT22;59593;51.716;7.016;2022-12-07T06:26:56;4.10;99.90
71754;DHT22;59593;51.716;7.016;2022-12-07T06:29:22;4.20;99.90
71754;DHT22;59593;51.716;7.016;2022-12-07T06:31:48;4.20;99.90
71754;DHT22;59593;51.716;7.016;2022-12-07T06:34:16;4.00;99.90
71754;DHT22;59593;51.716;7.016;2022-12-07T06:36:42;4.10;99.90
71754;DHT22;59593;51.716;7.016;2022-12-07T06:39:08;4.00;99.90
71754;DHT22;59593;51.716;7.016;2022-12-07T06:41:35;3.80;99.90
71754;DHT22;59593;51.716;7.016;2022-12-07T06:44:02;3.80;99.90
71754;DHT22;59593;51.716;7.016;2022-12-07T06:46:28;3.70;99.90
71754;DHT22;59593;51.716;7.016;2022-12-07T06:48:54;3.60;99.90
71754;DHT22;59593;51.716;7.016;2022-12-07T06:51:19;3.60;99.90
71754;DHT22;59593;51.716;7.016;2022-12-07T06:53:45;3.60;99.90
71754;DHT22;59593;51.716;7.016;2022-12-07T06:56:11;3.80;99.90
71754;DHT22;59593;51.716;7.016;2022-12-07T06:58:36;3.80;99.90
71754;DHT22;59593;51.716;7.016;2022-12-07T07:01:02;4.00;99.90
71754;DHT22;59593;51.716;7.016;2022-12-07T07:03:28;3.90;99.90
71754;DHT22;59593;51.716;7.016;2022-12-07T07:05:54;3.90;99.90
71754;DHT22;59593;51.716;7.016;2022-12-07T07:08:19;3.90;99.90
71754;DHT22;59593;51.716;7.016;2022-12-07T07:10:45;3.90;99.90
71754;DHT22;59593;51.716;7.016;2022-12-07T07:13:10;3.80;99.90
71754;DHT22;59593;51.716;7.016;2022-12-07T07:15:37;3.80;99.90
71754;DHT22;59593;51.716;7.016;2022-12-07T07:18:03;3.80;99.90
71754;DHT22;59593;51.716;7.016;2022-12-07T07:20:29;3.80;99.90
71754;DHT22;59593;51.716;7.016;2022-12-07T07:22:55;3.80;99.90
71754;DHT22;59593;51.716;7.016;2022-12-07T07:25:21;3.70;99.90
71754;DHT22;59593;51.716;7.016;2022-12-07T07:27:47;3.70;99.90
71754;DHT22;59593;51.716;7.016;2022-12-07T07:30:12;3.50;99.90
71754;DHT22;59593;51.716;7.016;2022-12-07T07:32:38;3.40;99.90
71754;DHT22;59593;51.716;7.016;2022-12-07T07:35:04;3.70;99.90
71754;DHT22;59593;51.716;7.016;2022-12-07T07:37:30;3.60;99.90
71754;DHT22;59593;51.716;7.016;2022-12-07T07:39:55;3.50;99.90
71754;DHT22;59593;51.716;7.016;2022-12-07T07:42:21;3.40;99.90
71754;DHT22;59593;51.716;7.016;2022-12-07T07:44:47;3.40;99.90
71754;DHT22;59593;51.716;7.016;2022-12-07T07:47:13;3.40;99.90
71754;DHT22;59593;51.716;7.016;2022-12-07T07:49:38;3.30;99.90
71754;DHT22;59593;51.716;7.016;2022-12-07T07:52:05;3.30;99.90
71754;DHT22;59593;51.716;7.016;2022-12-07T07:54:31;3.20;99.90
71754;DHT22;59593;51.716;7.016;2022-12-07T07:56:57;3.30;99.90
71754;DHT22;59593;51.716;7.016;2022-12-07T07:59:22;3.40;99.90
71754;DHT22;59593;51.716;7.016;2022-12-07T08:01:48;3.40;99.90
71754;DHT22;59593;51.716;7.016;2022-12-07T08:04:13;3.30;99.90
71754;DHT22;59593;51.716;7.016;2022-12-07T08:06:39;3.40;99.90
71754;DHT22;59593;51.716;7.016;2022-12-07T08:09:04;3.40;99.90
71754;DHT22;59593;51.716;7.016;2022-12-07T08:11:31;3.50;99.90
71754;DHT22;59593;51.716;7.016;2022-12-07T08:13:57;3.60;99.90
71754;DHT22;59593;51.716;7.016;2022-12-07T08:16:23;3.60;99.90
71754;DHT22;59593;51.716;7.016;2022-12-07T08:18:48;3.90;99.90
71754;DHT22;59593;51.716;7.016;2022-12-07T08:21:15;4.00;99.90
71754;DHT22;59593;51.716;7.016;2022-12-07T08:23:41;4.10;99.90
71754;DHT22;59593;51.716;7.016;2022-12-07T08:26:10;4.10;99.90
71754;DHT22;59593;51.716;7.016;2022-12-07T08:28:36;4.10;99.90
71754;DHT22;59593;51.716;7.016;2022-12-07T08:31:06;4.30;99.90
71754;DHT22;59593;51.716;7.016;2022-12-07T08:33:32;4.30;99.90
71754;DHT22;59593;51.716;7.016;2022-12-07T08:36:04;4.30;99.90
71754;DHT22;59593;51.716;7.016;2022-12-07T08:38:30;4.30;99.90
71754;DHT22;59593;51.716;7.016;2022-12-07T08:40:57;4.30;99.90
71754;DHT22;59593;51.716;7.016;2022-12-07T08:43:23;4.20;99.90
71754;DHT22;59593;51.716;7.016;2022-12-07T08:46:03;4.20;99.90
71754;DHT22;59593;51.716;7.016;2022-12-07T08:48:31;4.30;99.90
71754;DHT22;59593;51.716;7.016;2022-12-07T08:50:58;4.30;99.90
71754;DHT22;59593;51.716;7.016;2022-12-07T08:53:23;4.40;99.90
71754;DHT22;59593;51.716;7.016;2022-12-07T08:55:49;4.40;99.90
71754;DHT22;59593;51.716;7.016;2022-12-07T08:58:15;4.40;99.90
71754;DHT22;59593;51.716;7.016;2022-12-07T09:00:40;4.40;99.90
71754;DHT22;59593;51.716;7.016;2022-12-07T09:03:07;4.40;99.90
71754;DHT22;59593;51.716;7.016;2022-12-07T09:05:33;4.40;99.90
71754;DHT22;59593;51.716;7.016;2022-12-07T09:08:00;4.40;99.90
71754;DHT22;59593;51.716;7.016;2022-12-07T09:10:27;4.50;99.90
71754;DHT22;59593;51.716;7.016;2022-12-07T09:12:53;4.50;99.90
71754;DHT22;59593;51.716;7.016;2022-12-07T09:15:18;4.50;99.90
71754;DHT22;59593;51.716;7.016;2022-12-07T09:17:44;4.60;99.90
71754;DHT22;59593;51.716;7.016;2022-12-07T09:20:10;4.70;99.90
71754;DHT22;59593;51.716;7.016;2022-12-07T09:22:35;4.80;99.90
71754;DHT22;59593;51.716;7.016;2022-12-07T09:25:02;4.90;99.90
71754;DHT22;59593;51.716;7.016;2022-12-07T09:27:28;4.90;99.90
71754;DHT22;59593;51.716;7.016;2022-12-07T09:29:53;4.80;99.90
71754;DHT22;59593;51.716;7.016;2022-12-07T09:32:19;4.80;99.90
71754;DHT22;59593;51.716;7.016;2022-12-07T09:34:45;4.80;99.90
71754;DHT22;59593;51.716;7.016;2022-12-07T09:37:10;4.80;99.90
71754;DHT22;59593;51.716;7.016;2022-12-07T09:39:39;4.70;99.90
71754;DHT22;59593;51.716;7.016;2022-12-07T09:42:06;4.80;99.90
71754;DHT22;59593;51.716;7.016;2022-12-07T09:44:33;4.70;99.90
71754;DHT22;59593;51.716;7.016;2022-12-07T09:46:58;4.80;99.90
71754;DHT22;59593;51.716;7.016;2022-12-07T09:49:27;4.90;99.90
71754;DHT22;59593;51.716;7.016;2022-12-07T09:54:36;5.30;99.90
71754;DHT22;59593;51.716;7.016;2022-12-07T09:57:04;5.50;99.90
71754;DHT22;59593;51.716;7.016;2022-12-07T09:59:30;5.80;99.90
71754;DHT22;59593;51.716;7.016;2022-12-07T10:01:55;5.90;99.90
71754;DHT22;59593;51.716;7.016;2022-12-07T10:04:24;5.90;99.90
71754;DHT22;59593;51.716;7.016;2022-12-07T10:06:50;5.80;99.90
71754;DHT22;59593;51.716;7.016;2022-12-07T10:09:20;5.70;99.90
71754;DHT22;59593;51.716;7.016;2022-12-07T10:12:00;5.70;99.90
71754;DHT22;59593;51.716;7.016;2022-12-07T10:14:28;5.70;99.90
71754;DHT22;59593;51.716;7.016;2022-12-07T10:16:55;5.70;99.90
71754;DHT22;59593;51.716;7.016;2022-12-07T10:19:32;5.80;99.90
71754;DHT22;59593;51.716;7.016;2022-12-07T10:22:13;6.00;99.90
71754;DHT22;59593;51.716;7.016;2022-12-07T10:24:40;6.00;99.90
71754;DHT22;59593;51.716;7.016;2022-12-07T10:29:48;6.00;99.90
71754;DHT22;59593;51.716;7.016;2022-12-07T10:34:40;5.90;99.90
71754;DHT22;59593;51.716;7.016;2022-12-07T10:39:44;5.80;99.90
71754;DHT22;59593;51.716;7.016;2022-12-07T10:42:31;5.90;99.90
71754;DHT22;59593;51.716;7.016;2022-12-07T10:45:17;5.90;99.90
71754;DHT22;59593;51.716;7.016;2022-12-07T10:47:48;5.90;99.90
71754;DHT22;59593;51.716;7.016;2022-12-07T10:50:35;6.00;99.90
71754;DHT22;59593;51.716;7.016;2022-12-07T10:59:01;6.30;99.90
71754;DHT22;59593;51.716;7.016;2022-12-07T11:04:53;6.40;99.90
71754;DHT22;59593;51.716;7.016;2022-12-07T11:07:42;6.80;99.90
71754;DHT22;59593;51.716;7.016;2022-12-07T11:10:19;7.80;99.90
71754;DHT22;59593;51.716;7.016;2022-12-07T11:29:00;7.70;99.90
71754;DHT22;59593;51.716;7.016;2022-12-07T11:34:47;7.60;99.90
71754;DHT22;59593;51.716;7.016;2022-12-07T11:37:24;7.70;99.90
71754;DHT22;59593;51.716;7.016;2022-12-07T11:39:54;7.40;99.90
71754;DHT22;59593;51.716;7.016;2022-12-07T11:42:36;7.40;99.90
71754;DHT22;59593;51.716;7.016;2022-12-07T11:47:51;8.40;99.90
71754;DHT22;59593;51.716;7.016;2022-12-07T11:50:33;8.50;99.90
71754;DHT22;59593;51.716;7.016;2022-12-07T11:53:10;8.60;99.90
71754;DHT22;59593;51.716;7.016;2022-12-07T12:03:40;8.80;99.90
71754;DHT22;59593;51.716;7.016;2022-12-07T12:06:06;8.30;99.90
71754;DHT22;59593;51.716;7.016;2022-12-07T12:08:41;8.30;99.90
71754;DHT22;59593;51.716;7.016;2022-12-07T12:11:39;8.70;99.90
71754;DHT22;59593;51.716;7.016;2022-12-07T12:20:16;9.00;99.90
71754;DHT22;59593;51.716;7.016;2022-12-07T12:22:48;8.10;99.90
71754;DHT22;59593;51.716;7.016;2022-12-07T12:25:25;7.80;99.90
71754;DHT22;59593;51.716;7.016;2022-12-07T12:27:55;7.70;99.90
71754;DHT22;59593;51.716;7.016;2022-12-07T12:30:39;7.60;99.90
71754;DHT22;59593;51.716;7.016;2022-12-07T12:33:27;7.30;99.90
71754;DHT22;59593;51.716;7.016;2022-12-07T12:49:38;6.80;99.90
71754;DHT22;59593;51.716;7.016;2022-12-07T12:57:36;6.80;99.90
71754;DHT22;59593;51.716;7.016;2022-12-07T13:00:23;6.70;99.90
71754;DHT22;59593;51.716;7.016;2022-12-07T13:02:54;6.70;99.90
71754;DHT22;59593;51.716;7.016;2022-12-07T13:05:31;6.80;99.90
71754;DHT22;59593;51.716;7.016;2022-12-07T13:08:17;6.70;99.90
71754;DHT22;59593;51.716;7.016;2022-12-07T13:10:45;6.60;99.90
71754;DHT22;59593;51.716;7.016;2022-12-07T13:18:45;5.70;99.90
71754;DHT22;59593;51.716;7.016;2022-12-07T13:31:47;6.30;99.90
71754;DHT22;59593;51.716;7.016;2022-12-07T13:34:36;6.90;99.90
71754;DHT22;59593;51.716;7.016;2022-12-07T13:40:26;9.40;99.90
71754;DHT22;59593;51.716;7.016;2022-12-07T13:42:34;10.30;99.90
71754;DHT22;59593;51.716;7.016;2022-12-07T13:45:17;10.60;99.90
71754;DHT22;59593;51.716;7.016;2022-12-07T13:47:52;10.70;99.90
71754;DHT22;59593;51.716;7.016;2022-12-07T13:50:28;11.30;99.90
71754;DHT22;59593;51.716;7.016;2022-12-07T13:52:59;11.70;99.90
71754;DHT22;59593;51.716;7.016;2022-12-07T13:55:26;11.80;99.90
71754;DHT22;59593;51.716;7.016;2022-12-07T13:57:53;11.20;99.90
71754;DHT22;59593;51.716;7.016;2022-12-07T14:00:30;10.90;99.90
71754;DHT22;59593;51.716;7.016;2022-12-07T14:05:32;11.10;99.90
71754;DHT22;59593;51.716;7.016;2022-12-07T14:08:00;11.00;99.90
71754;DHT22;59593;51.716;7.016;2022-12-07T14:12:52;10.10;99.90
71754;DHT22;59593;51.716;7.016;2022-12-07T14:15:21;9.40;99.90
71754;DHT22;59593;51.716;7.016;2022-12-07T14:17:52;8.40;99.90
71754;DHT22;59593;51.716;7.016;2022-12-07T14:20:35;8.30;99.90
71754;DHT22;59593;51.716;7.016;2022-12-07T14:23:02;8.40;99.90
71754;DHT22;59593;51.716;7.016;2022-12-07T14:25:45;8.10;99.90
71754;DHT22;59593;51.716;7.016;2022-12-07T14:28:32;7.80;99.90
71754;DHT22;59593;51.716;7.016;2022-12-07T14:30:58;7.70;99.90
71754;DHT22;59593;51.716;7.016;2022-12-07T14:33:25;7.50;99.90
71754;DHT22;59593;51.716;7.016;2022-12-07T14:35:50;7.40;99.90
71754;DHT22;59593;51.716;7.016;2022-12-07T14:38:20;7.30;99.90
71754;DHT22;59593;51.716;7.016;2022-12-07T14:40:47;7.10;99.90
71754;DHT22;59593;51.716;7.016;2022-12-07T14:43:15;7.10;99.90
71754;DHT22;59593;51.716;7.016;2022-12-07T14:45:41;7.00;99.90
71754;DHT22;59593;51.716;7.016;2022-12-07T14:48:10;7.00;99.90
71754;DHT22;59593;51.716;7.016;2022-12-07T14:50:43;6.90;99.90
71754;DHT22;59593;51.716;7.016;2022-12-07T14:53:14;6.70;99.90
71754;DHT22;59593;51.716;7.016;2022-12-07T14:55:41;6.70;99.90
71754;DHT22;59593;51.716;7.016;2022-12-07T14:58:16;6.60;99.90
71754;DHT22;59593;51.716;7.016;2022-12-07T15:00:42;6.60;99.90
71754;DHT22;59593;51.716;7.016;2022-12-07T15:03:11;6.50;99.90
71754;DHT22;59593;51.716;7.016;2022-12-07T15:05:38;6.40;99.90
71754;DHT22;59593;51.716;7.016;2022-12-07T15:08:04;6.40;99.90
71754;DHT22;59593;51.716;7.016;2022-12-07T15:10:33;6.40;99.90
71754;DHT22;59593;51.716;7.016;2022-12-07T15:13:00;6.30;99.90
71754;DHT22;59593;51.716;7.016;2022-12-07T15:15:45;6.10;99.90
71754;DHT22;59593;51.716;7.016;2022-12-07T15:18:11;5.90;99.90
71754;DHT22;59593;51.716;7.016;2022-12-07T15:20:37;6.00;99.90
71754;DHT22;59593;51.716;7.016;2022-12-07T15:23:03;6.00;99.90
71754;DHT22;59593;51.716;7.016;2022-12-07T15:25:28;6.00;99.90
71754;DHT22;59593;51.716;7.016;2022-12-07T15:27:54;5.90;99.90
71754;DHT22;59593;51.716;7.016;2022-12-07T15:30:19;6.00;99.90
71754;DHT22;59593;51.716;7.016;2022-12-07T15:32:49;6.00;99.90
71754;DHT22;59593;51.716;7.016;2022-12-07T15:35:15;6.00;99.90
71754;DHT22;59593;51.716;7.016;2022-12-07T15:37:41;5.90;99.90
71754;DHT22;59593;51.716;7.016;2022-12-07T15:40:07;6.00;99.90
71754;DHT22;59593;51.716;7.016;2022-12-07T15:42:33;5.90;99.90
71754;DHT22;59593;51.716;7.016;2022-12-07T15:44:58;5.90;99.90
71754;DHT22;59593;51.716;7.016;2022-12-07T15:47:34;5.90;99.90
71754;DHT22;59593;51.716;7.016;2022-12-07T15:50:04;6.00;99.90
71754;DHT22;59593;51.716;7.016;2022-12-07T15:52:30;6.00;99.90
71754;DHT22;59593;51.716;7.016;2022-12-07T15:54:56;6.00;99.90
71754;DHT22;59593;51.716;7.016;2022-12-07T15:57:22;6.00;99.90
71754;DHT22;59593;51.716;7.016;2022-12-07T15:59:47;6.00;99.90
71754;DHT22;59593;51.716;7.016;2022-12-07T16:02:13;6.00;99.90
71754;DHT22;59593;51.716;7.016;2022-12-07T16:04:39;5.90;99.90
71754;DHT22;59593;51.716;7.016;2022-12-07T16:07:05;5.80;99.90
71754;DHT22;59593;51.716;7.016;2022-12-07T16:09:31;5.90;99.90
71754;DHT22;59593;51.716;7.016;2022-12-07T16:11:56;5.80;99.90
71754;DHT22;59593;51.716;7.016;2022-12-07T16:14:22;5.80;99.90
71754;DHT22;59593;51.716;7.016;2022-12-07T16:16:48;6.00;99.90
71754;DHT22;59593;51.716;7.016;2022-12-07T16:19:14;6.00;99.90
71754;DHT22;59593;51.716;7.016;2022-12-07T16:21:40;6.00;99.90
71754;DHT22;59593;51.716;7.016;2022-12-07T16:24:06;5.90;99.90
71754;DHT22;59593;51.716;7.016;2022-12-07T16:26:32;5.90;99.90
71754;DHT22;59593;51.716;7.016;2022-12-07T16:28:58;5.90;99.90
71754;DHT22;59593;51.716;7.016;2022-12-07T16:31:26;5.80;99.90
71754;DHT22;59593;51.716;7.016;2022-12-07T16:33:56;5.80;99.90
71754;DHT22;59593;51.716;7.016;2022-12-07T16:36:23;5.80;99.90
71754;DHT22;59593;51.716;7.016;2022-12-07T16:38:50;5.70;99.90
71754;DHT22;59593;51.716;7.016;2022-12-07T16:41:16;5.70;99.90
71754;DHT22;59593;51.716;7.016;2022-12-07T16:43:41;5.70;99.90
71754;DHT22;59593;51.716;7.016;2022-12-07T16:46:07;5.60;99.90
71754;DHT22;59593;51.716;7.016;2022-12-07T16:48:37;5.50;99.90
71754;DHT22;59593;51.716;7.016;2022-12-07T16:51:05;5.30;99.90
71754;DHT22;59593;51.716;7.016;2022-12-07T16:53:32;5.40;99.90
71754;DHT22;59593;51.716;7.016;2022-12-07T16:55:57;5.40;99.90
71754;DHT22;59593;51.716;7.016;2022-12-07T16:58:23;5.40;99.90
71754;DHT22;59593;51.716;7.016;2022-12-07T17:00:48;5.40;99.90
71754;DHT22;59593;51.716;7.016;2022-12-07T17:03:14;5.30;99.90
71754;DHT22;59593;51.716;7.016;2022-12-07T17:05:43;5.40;99.90
71754;DHT22;59593;51.716;7.016;2022-12-07T17:08:09;5.40;99.90
71754;DHT22;59593;51.716;7.016;2022-12-07T17:10:36;5.30;99.90
71754;DHT22;59593;51.716;7.016;2022-12-07T17:13:03;5.30;99.90
71754;DHT22;59593;51.716;7.016;2022-12-07T17:16:15;5.30;99.90
71754;DHT22;59593;51.716;7.016;2022-12-07T17:18:41;5.40;99.90
71754;DHT22;59593;51.716;7.016;2022-12-07T17:21:08;5.30;99.90
71754;DHT22;59593;51.716;7.016;2022-12-07T17:23:35;5.20;99.90
71754;DHT22;59593;51.716;7.016;2022-12-07T17:26:10;5.10;99.90
71754;DHT22;59593;51.716;7.016;2022-12-07T17:28:36;5.20;99.90
71754;DHT22;59593;51.716;7.016;2022-12-07T17:31:05;5.20;99.90
71754;DHT22;59593;51.716;7.016;2022-12-07T17:33:34;5.10;99.90
71754;DHT22;59593;51.716;7.016;2022-12-07T17:36:00;5.10;99.90
71754;DHT22;59593;51.716;7.016;2022-12-07T17:38:27;5.00;99.90
71754;DHT22;59593;51.716;7.016;2022-12-07T17:40:53;5.10;99.90
71754;DHT22;59593;51.716;7.016;2022-12-07T17:43:18;5.20;99.90
71754;DHT22;59593;51.716;7.016;2022-12-07T17:45:44;5.10;99.90
71754;DHT22;59593;51.716;7.016;2022-12-07T17:48:10;5.00;99.90
71754;DHT22;59593;51.716;7.016;2022-12-07T17:50:36;5.00;99.90
71754;DHT22;59593;51.716;7.016;2022-12-07T17:53:22;5.10;99.90
71754;DHT22;59593;51.716;7.016;2022-12-07T17:55:47;5.10;99.90
71754;DHT22;59593;51.716;7.016;2022-12-07T17:58:17;5.20;99.90
71754;DHT22;59593;51.716;7.016;2022-12-07T18:00:42;5.10;99.90
71754;DHT22;59593;51.716;7.016;2022-12-07T18:03:08;5.10;99.90
71754;DHT22;59593;51.716;7.016;2022-12-07T18:05:38;5.20;99.90
71754;DHT22;59593;51.716;7.016;2022-12-07T18:08:08;5.10;99.90